sensor_id;sensor_type;location;lat;lon;timestamp;P1;durP1;ratioP1;P2;durP2;ratioP2
20073;SDS011;10197;54.282;10.078;2023-04-20T00:01:57;9.38;;;2.78;;
20073;SDS011;10197;54.282;10.078;2023-04-20T00:04:27;2.30;;;2.10;;
20073;SDS011;10197;54.282;10.078;2023-04-20T00:06:54;2.15;;;1.80;;
20073;SDS011;10197;54.282;10.078;2023-04-20T00:09:23;3.17;;;1.92;;
20073;SDS011;10197;54.282;10.078;2023-04-20T00:11:51;3.65;;;2.20;;
20073;SDS011;10197;54.282;10.078;2023-04-20T00:14:18;2.97;;;2.17;;
20073;SDS011;10197;54.282;10.078;2023-04-20T00:16:47;3.70;;;1.98;;
20073;SDS011;10197;54.282;10.078;2023-04-20T00:19:14;4.03;;;2.13;;
20073;SDS011;10197;54.282;10.078;2023-04-20T00:21:40;5.35;;;2.30;;
20073;SDS011;10197;54.282;10.078;2023-04-20T00:24:08;2.85;;;2.03;;
20073;SDS011;10197;54.282;10.078;2023-04-20T00:26:35;3.88;;;1.95;;
20073;SDS011;10197;54.282;10.078;2023-04-20T00:29:02;4.80;;;2.05;;
20073;SDS011;10197;54.282;10.078;2023-04-20T00:31:29;3.90;;;2.17;;
20073;SDS011;10197;54.282;10.078;2023-04-20T00:33:58;3.63;;;1.92;;
20073;SDS011;10197;54.282;10.078;2023-04-20T00:36:25;3.33;;;2.00;;
20073;SDS011;10197;54.282;10.078;2023-04-20T00:38:52;4.32;;;1.90;;
20073;SDS011;10197;54.282;10.078;2023-04-20T00:41:19;3.10;;;2.08;;
20073;SDS011;10197;54.282;10.078;2023-04-20T00:43:50;5.43;;;1.65;;
20073;SDS011;10197;54.282;10.078;2023-04-20T00:46:17;2.83;;;2.15;;
20073;SDS011;10197;54.282;10.078;2023-04-20T00:48:45;3.45;;;1.88;;
20073;SDS011;10197;54.282;10.078;2023-04-20T00:51:13;3.35;;;1.70;;
20073;SDS011;10197;54.282;10.078;2023-04-20T00:53:40;10.63;;;2.13;;
20073;SDS011;10197;54.282;10.078;2023-04-20T00:56:07;2.83;;;1.90;;
20073;SDS011;10197;54.282;10.078;2023-04-20T00:58:35;3.72;;;1.95;;
20073;SDS011;10197;54.282;10.078;2023-04-20T01:01:02;2.72;;;1.88;;
20073;SDS011;10197;54.282;10.078;2023-04-20T01:03:29;2.20;;;1.73;;
20073;SDS011;10197;54.282;10.078;2023-04-20T01:05:56;2.63;;;1.88;;
20073;SDS011;10197;54.282;10.078;2023-04-20T01:08:25;2.03;;;1.83;;
20073;SDS011;10197;54.282;10.078;2023-04-20T01:10:53;2.75;;;1.88;;
20073;SDS011;10197;54.282;10.078;2023-04-20T01:13:21;3.20;;;1.60;;
20073;SDS011;10197;54.282;10.078;2023-04-20T01:15:48;3.47;;;1.90;;
20073;SDS011;10197;54.282;10.078;2023-04-20T01:18:15;3.30;;;1.60;;
20073;SDS011;10197;54.282;10.078;2023-04-20T01:20:43;3.78;;;1.80;;
20073;SDS011;10197;54.282;10.078;2023-04-20T01:23:14;2.50;;;1.70;;
20073;SDS011;10197;54.282;10.078;2023-04-20T01:25:43;2.97;;;1.85;;
20073;SDS011;10197;54.282;10.078;2023-04-20T01:28:09;2.67;;;1.90;;
20073;SDS011;10197;54.282;10.078;2023-04-20T01:30:38;3.97;;;2.15;;
20073;SDS011;10197;54.282;10.078;2023-04-20T01:33:06;3.03;;;1.67;;
20073;SDS011;10197;54.282;10.078;2023-04-20T01:35:33;4.93;;;1.70;;
20073;SDS011;10197;54.282;10.078;2023-04-20T01:38:00;2.63;;;1.90;;
20073;SDS011;10197;54.282;10.078;2023-04-20T01:40:30;3.03;;;2.17;;
20073;SDS011;10197;54.282;10.078;2023-04-20T01:42:58;3.42;;;1.90;;
20073;SDS011;10197;54.282;10.078;2023-04-20T01:45:25;2.70;;;1.73;;
20073;SDS011;10197;54.282;10.078;2023-04-20T01:47:52;2.92;;;1.80;;
20073;SDS011;10197;54.282;10.078;2023-04-20T01:50:18;3.13;;;1.92;;
20073;SDS011;10197;54.282;10.078;2023-04-20T01:52:45;6.50;;;2.00;;
20073;SDS011;10197;54.282;10.078;2023-04-20T01:55:12;3.53;;;1.70;;
20073;SDS011;10197;54.282;10.078;2023-04-20T01:57:41;4.85;;;1.90;;
20073;SDS011;10197;54.282;10.078;2023-04-20T02:00:09;3.17;;;1.70;;
20073;SDS011;10197;54.282;10.078;2023-04-20T02:02:39;2.90;;;1.73;;
20073;SDS011;10197;54.282;10.078;2023-04-20T02:05:07;3.35;;;2.00;;
20073;SDS011;10197;54.282;10.078;2023-04-20T02:07:34;3.10;;;2.22;;
20073;SDS011;10197;54.282;10.078;2023-04-20T02:10:02;5.32;;;1.85;;
20073;SDS011;10197;54.282;10.078;2023-04-20T02:12:29;3.95;;;2.03;;
20073;SDS011;10197;54.282;10.078;2023-04-20T02:14:58;3.80;;;1.95;;
20073;SDS011;10197;54.282;10.078;2023-04-20T02:17:25;6.75;;;2.30;;
20073;SDS011;10197;54.282;10.078;2023-04-20T02:19:52;3.08;;;1.83;;
20073;SDS011;10197;54.282;10.078;2023-04-20T02:22:19;2.15;;;1.85;;
20073;SDS011;10197;54.282;10.078;2023-04-20T02:24:46;3.08;;;1.92;;
20073;SDS011;10197;54.282;10.078;2023-04-20T02:27:13;3.83;;;2.10;;
20073;SDS011;10197;54.282;10.078;2023-04-20T02:29:40;3.38;;;1.98;;
20073;SDS011;10197;54.282;10.078;2023-04-20T02:32:08;2.38;;;1.95;;
20073;SDS011;10197;54.282;10.078;2023-04-20T02:34:35;2.50;;;2.25;;
20073;SDS011;10197;54.282;10.078;2023-04-20T02:37:02;4.82;;;2.08;;
20073;SDS011;10197;54.282;10.078;2023-04-20T02:39:29;3.30;;;2.33;;
20073;SDS011;10197;54.282;10.078;2023-04-20T02:41:56;4.35;;;1.90;;
20073;SDS011;10197;54.282;10.078;2023-04-20T02:44:23;3.40;;;2.00;;
20073;SDS011;10197;54.282;10.078;2023-04-20T02:46:50;2.17;;;1.98;;
20073;SDS011;10197;54.282;10.078;2023-04-20T02:49:19;3.63;;;1.90;;
20073;SDS011;10197;54.282;10.078;2023-04-20T02:51:46;2.78;;;1.92;;
20073;SDS011;10197;54.282;10.078;2023-04-20T02:54:13;2.53;;;2.00;;
20073;SDS011;10197;54.282;10.078;2023-04-20T02:56:41;3.25;;;2.28;;
20073;SDS011;10197;54.282;10.078;2023-04-20T02:59:09;4.15;;;2.20;;
20073;SDS011;10197;54.282;10.078;2023-04-20T03:01:36;6.00;;;2.10;;
20073;SDS011;10197;54.282;10.078;2023-04-20T03:04:14;5.00;;;2.30;;
20073;SDS011;10197;54.282;10.078;2023-04-20T03:06:53;4.03;;;2.10;;
20073;SDS011;10197;54.282;10.078;2023-04-20T03:09:27;3.28;;;2.10;;
20073;SDS011;10197;54.282;10.078;2023-04-20T03:12:10;2.15;;;1.88;;
20073;SDS011;10197;54.282;10.078;2023-04-20T03:14:56;4.47;;;2.20;;
20073;SDS011;10197;54.282;10.078;2023-04-20T03:17:45;2.65;;;2.10;;
20073;SDS011;10197;54.282;10.078;2023-04-20T03:20:13;4.40;;;2.20;;
20073;SDS011;10197;54.282;10.078;2023-04-20T03:22:42;3.85;;;2.30;;
20073;SDS011;10197;54.282;10.078;2023-04-20T03:25:09;6.25;;;1.92;;
20073;SDS011;10197;54.282;10.078;2023-04-20T03:27:47;3.53;;;2.25;;
20073;SDS011;10197;54.282;10.078;2023-04-20T03:30:15;4.65;;;2.38;;
20073;SDS011;10197;54.282;10.078;2023-04-20T03:32:45;2.80;;;2.38;;
20073;SDS011;10197;54.282;10.078;2023-04-20T03:35:12;4.93;;;2.55;;
20073;SDS011;10197;54.282;10.078;2023-04-20T03:37:39;5.03;;;2.65;;
20073;SDS011;10197;54.282;10.078;2023-04-20T03:40:08;5.60;;;2.70;;
20073;SDS011;10197;54.282;10.078;2023-04-20T03:42:35;4.15;;;2.88;;
20073;SDS011;10197;54.282;10.078;2023-04-20T03:45:03;3.08;;;2.35;;
20073;SDS011;10197;54.282;10.078;2023-04-20T03:47:31;3.35;;;2.38;;
20073;SDS011;10197;54.282;10.078;2023-04-20T03:49:58;6.13;;;2.50;;
20073;SDS011;10197;54.282;10.078;2023-04-20T03:52:25;4.95;;;2.30;;
20073;SDS011;10197;54.282;10.078;2023-04-20T03:54:52;4.00;;;2.53;;
20073;SDS011;10197;54.282;10.078;2023-04-20T03:57:20;4.13;;;2.30;;
20073;SDS011;10197;54.282;10.078;2023-04-20T03:59:47;3.70;;;2.10;;
20073;SDS011;10197;54.282;10.078;2023-04-20T04:02:18;4.15;;;2.22;;
20073;SDS011;10197;54.282;10.078;2023-04-20T04:04:47;4.43;;;2.47;;
20073;SDS011;10197;54.282;10.078;2023-04-20T04:07:14;4.90;;;2.08;;
20073;SDS011;10197;54.282;10.078;2023-04-20T04:09:42;6.07;;;2.28;;
20073;SDS011;10197;54.282;10.078;2023-04-20T04:12:11;4.85;;;2.45;;
20073;SDS011;10197;54.282;10.078;2023-04-20T04:14:39;2.72;;;2.25;;
20073;SDS011;10197;54.282;10.078;2023-04-20T04:17:12;3.72;;;2.50;;
20073;SDS011;10197;54.282;10.078;2023-04-20T04:19:40;6.90;;;2.40;;
20073;SDS011;10197;54.282;10.078;2023-04-20T04:22:08;5.68;;;2.72;;
20073;SDS011;10197;54.282;10.078;2023-04-20T04:24:41;4.78;;;2.38;;
20073;SDS011;10197;54.282;10.078;2023-04-20T04:27:09;3.90;;;2.40;;
20073;SDS011;10197;54.282;10.078;2023-04-20T04:29:46;4.88;;;2.30;;
20073;SDS011;10197;54.282;10.078;2023-04-20T04:32:17;3.45;;;2.42;;
20073;SDS011;10197;54.282;10.078;2023-04-20T04:34:44;4.95;;;2.80;;
20073;SDS011;10197;54.282;10.078;2023-04-20T04:37:13;6.00;;;2.30;;
20073;SDS011;10197;54.282;10.078;2023-04-20T04:39:46;5.40;;;2.40;;
20073;SDS011;10197;54.282;10.078;2023-04-20T04:42:23;4.82;;;2.90;;
20073;SDS011;10197;54.282;10.078;2023-04-20T04:44:53;3.53;;;3.08;;
20073;SDS011;10197;54.282;10.078;2023-04-20T04:47:28;5.38;;;2.70;;
20073;SDS011;10197;54.282;10.078;2023-04-20T04:49:55;5.32;;;2.53;;
20073;SDS011;10197;54.282;10.078;2023-04-20T04:52:21;4.95;;;2.60;;
20073;SDS011;10197;54.282;10.078;2023-04-20T04:54:48;5.32;;;2.90;;
20073;SDS011;10197;54.282;10.078;2023-04-20T04:57:15;4.95;;;2.78;;
20073;SDS011;10197;54.282;10.078;2023-04-20T04:59:42;4.82;;;2.45;;
20073;SDS011;10197;54.282;10.078;2023-04-20T05:02:10;8.05;;;2.58;;
20073;SDS011;10197;54.282;10.078;2023-04-20T05:04:39;7.95;;;2.92;;
20073;SDS011;10197;54.282;10.078;2023-04-20T05:07:08;6.93;;;2.67;;
20073;SDS011;10197;54.282;10.078;2023-04-20T05:09:35;4.88;;;2.95;;
20073;SDS011;10197;54.282;10.078;2023-04-20T05:12:02;7.22;;;3.10;;
20073;SDS011;10197;54.282;10.078;2023-04-20T05:14:29;4.90;;;3.08;;
20073;SDS011;10197;54.282;10.078;2023-04-20T05:16:57;4.32;;;2.95;;
20073;SDS011;10197;54.282;10.078;2023-04-20T05:19:26;5.82;;;2.83;;
20073;SDS011;10197;54.282;10.078;2023-04-20T05:21:52;4.85;;;2.50;;
20073;SDS011;10197;54.282;10.078;2023-04-20T05:24:19;7.32;;;2.65;;
20073;SDS011;10197;54.282;10.078;2023-04-20T05:26:47;5.60;;;2.60;;
20073;SDS011;10197;54.282;10.078;2023-04-20T05:29:14;5.63;;;2.63;;
20073;SDS011;10197;54.282;10.078;2023-04-20T05:31:41;5.55;;;3.10;;
20073;SDS011;10197;54.282;10.078;2023-04-20T05:34:09;5.45;;;2.80;;
20073;SDS011;10197;54.282;10.078;2023-04-20T05:36:37;4.30;;;2.67;;
20073;SDS011;10197;54.282;10.078;2023-04-20T05:39:05;6.80;;;2.75;;
20073;SDS011;10197;54.282;10.078;2023-04-20T05:41:32;4.50;;;2.78;;
20073;SDS011;10197;54.282;10.078;2023-04-20T05:43:59;5.82;;;2.90;;
20073;SDS011;10197;54.282;10.078;2023-04-20T05:46:26;5.25;;;2.78;;
20073;SDS011;10197;54.282;10.078;2023-04-20T05:48:54;7.53;;;2.85;;
20073;SDS011;10197;54.282;10.078;2023-04-20T05:51:21;6.32;;;3.08;;
20073;SDS011;10197;54.282;10.078;2023-04-20T05:53:51;4.72;;;3.03;;
20073;SDS011;10197;54.282;10.078;2023-04-20T05:56:18;4.95;;;2.83;;
20073;SDS011;10197;54.282;10.078;2023-04-20T05:58:45;5.82;;;3.30;;
20073;SDS011;10197;54.282;10.078;2023-04-20T06:01:12;5.60;;;2.92;;
20073;SDS011;10197;54.282;10.078;2023-04-20T06:03:39;6.03;;;3.13;;
20073;SDS011;10197;54.282;10.078;2023-04-20T06:06:08;7.15;;;3.10;;
20073;SDS011;10197;54.282;10.078;2023-04-20T06:08:35;4.57;;;3.20;;
20073;SDS011;10197;54.282;10.078;2023-04-20T06:11:03;5.07;;;3.00;;
20073;SDS011;10197;54.282;10.078;2023-04-20T06:13:30;9.48;;;2.60;;
20073;SDS011;10197;54.282;10.078;2023-04-20T06:15:58;7.25;;;3.05;;
20073;SDS011;10197;54.282;10.078;2023-04-20T06:18:25;6.15;;;3.15;;
20073;SDS011;10197;54.282;10.078;2023-04-20T06:20:51;7.20;;;3.58;;
20073;SDS011;10197;54.282;10.078;2023-04-20T06:23:18;9.13;;;3.45;;
20073;SDS011;10197;54.282;10.078;2023-04-20T06:25:45;8.60;;;3.22;;
20073;SDS011;10197;54.282;10.078;2023-04-20T06:28:14;6.55;;;3.53;;
20073;SDS011;10197;54.282;10.078;2023-04-20T06:30:40;9.50;;;2.95;;
20073;SDS011;10197;54.282;10.078;2023-04-20T06:33:07;4.57;;;2.90;;
20073;SDS011;10197;54.282;10.078;2023-04-20T06:35:38;7.95;;;3.67;;
20073;SDS011;10197;54.282;10.078;2023-04-20T06:38:14;6.57;;;3.58;;
20073;SDS011;10197;54.282;10.078;2023-04-20T06:40:51;8.35;;;3.60;;
20073;SDS011;10197;54.282;10.078;2023-04-20T06:43:20;8.10;;;3.72;;
20073;SDS011;10197;54.282;10.078;2023-04-20T06:45:47;11.60;;;3.83;;
20073;SDS011;10197;54.282;10.078;2023-04-20T06:48:14;7.70;;;3.67;;
20073;SDS011;10197;54.282;10.078;2023-04-20T06:50:41;7.88;;;3.22;;
20073;SDS011;10197;54.282;10.078;2023-04-20T06:53:08;7.93;;;4.03;;
20073;SDS011;10197;54.282;10.078;2023-04-20T06:55:36;9.13;;;3.75;;
20073;SDS011;10197;54.282;10.078;2023-04-20T06:58:03;12.93;;;4.93;;
20073;SDS011;10197;54.282;10.078;2023-04-20T07:00:33;7.22;;;3.90;;
20073;SDS011;10197;54.282;10.078;2023-04-20T07:03:16;7.63;;;3.75;;
20073;SDS011;10197;54.282;10.078;2023-04-20T07:05:43;8.15;;;3.65;;
20073;SDS011;10197;54.282;10.078;2023-04-20T07:08:11;9.20;;;4.18;;
20073;SDS011;10197;54.282;10.078;2023-04-20T07:10:40;10.77;;;4.32;;
20073;SDS011;10197;54.282;10.078;2023-04-20T07:13:07;7.45;;;3.75;;
20073;SDS011;10197;54.282;10.078;2023-04-20T07:15:35;6.97;;;3.95;;
20073;SDS011;10197;54.282;10.078;2023-04-20T07:18:02;12.65;;;3.72;;
20073;SDS011;10197;54.282;10.078;2023-04-20T07:20:29;7.38;;;3.83;;
20073;SDS011;10197;54.282;10.078;2023-04-20T07:22:56;13.90;;;3.67;;
20073;SDS011;10197;54.282;10.078;2023-04-20T07:25:26;7.05;;;4.10;;
20073;SDS011;10197;54.282;10.078;2023-04-20T07:28:04;11.00;;;4.38;;
20073;SDS011;10197;54.282;10.078;2023-04-20T07:34:13;12.25;;;3.60;;
20073;SDS011;10197;54.282;10.078;2023-04-20T07:36:40;7.85;;;3.42;;
20073;SDS011;10197;54.282;10.078;2023-04-20T07:39:17;10.48;;;4.05;;
20073;SDS011;10197;54.282;10.078;2023-04-20T07:42:01;9.88;;;3.67;;
20073;SDS011;10197;54.282;10.078;2023-04-20T07:45:03;6.45;;;3.50;;
20073;SDS011;10197;54.282;10.078;2023-04-20T07:47:31;8.40;;;4.20;;
20073;SDS011;10197;54.282;10.078;2023-04-20T07:50:16;9.15;;;3.83;;
20073;SDS011;10197;54.282;10.078;2023-04-20T07:53:15;11.95;;;4.45;;
20073;SDS011;10197;54.282;10.078;2023-04-20T07:55:42;9.32;;;3.70;;
20073;SDS011;10197;54.282;10.078;2023-04-20T07:58:09;7.57;;;3.55;;
20073;SDS011;10197;54.282;10.078;2023-04-20T08:00:36;8.60;;;4.10;;
20073;SDS011;10197;54.282;10.078;2023-04-20T08:03:03;9.82;;;3.72;;
20073;SDS011;10197;54.282;10.078;2023-04-20T08:05:32;11.77;;;3.75;;
20073;SDS011;10197;54.282;10.078;2023-04-20T08:07:59;8.15;;;3.50;;
20073;SDS011;10197;54.282;10.078;2023-04-20T08:10:25;9.13;;;3.97;;
20073;SDS011;10197;54.282;10.078;2023-04-20T08:16:40;12.98;;;4.50;;
20073;SDS011;10197;54.282;10.078;2023-04-20T08:19:07;9.45;;;4.80;;
20073;SDS011;10197;54.282;10.078;2023-04-20T08:21:39;12.27;;;3.90;;
20073;SDS011;10197;54.282;10.078;2023-04-20T08:24:07;9.95;;;4.05;;
20073;SDS011;10197;54.282;10.078;2023-04-20T08:26:34;9.50;;;4.68;;
20073;SDS011;10197;54.282;10.078;2023-04-20T08:29:02;14.20;;;4.88;;
20073;SDS011;10197;54.282;10.078;2023-04-20T08:31:32;7.15;;;4.07;;
20073;SDS011;10197;54.282;10.078;2023-04-20T08:34:00;9.73;;;4.28;;
20073;SDS011;10197;54.282;10.078;2023-04-20T08:36:26;8.93;;;4.10;;
20073;SDS011;10197;54.282;10.078;2023-04-20T08:39:04;8.80;;;4.80;;
20073;SDS011;10197;54.282;10.078;2023-04-20T08:41:35;12.55;;;4.97;;
20073;SDS011;10197;54.282;10.078;2023-04-20T08:44:05;11.48;;;4.45;;
20073;SDS011;10197;54.282;10.078;2023-04-20T08:46:36;9.45;;;4.50;;
20073;SDS011;10197;54.282;10.078;2023-04-20T08:49:04;14.90;;;5.13;;
20073;SDS011;10197;54.282;10.078;2023-04-20T08:51:30;8.32;;;4.43;;
20073;SDS011;10197;54.282;10.078;2023-04-20T08:53:58;11.38;;;5.00;;
20073;SDS011;10197;54.282;10.078;2023-04-20T08:56:34;8.27;;;4.57;;
20073;SDS011;10197;54.282;10.078;2023-04-20T08:59:02;9.13;;;4.43;;
20073;SDS011;10197;54.282;10.078;2023-04-20T09:01:29;12.38;;;4.82;;
20073;SDS011;10197;54.282;10.078;2023-04-20T09:03:57;11.80;;;5.63;;
20073;SDS011;10197;54.282;10.078;2023-04-20T09:06:24;11.68;;;5.00;;
20073;SDS011;10197;54.282;10.078;2023-04-20T09:08:52;14.40;;;5.47;;
20073;SDS011;10197;54.282;10.078;2023-04-20T09:11:20;10.30;;;5.10;;
20073;SDS011;10197;54.282;10.078;2023-04-20T09:14:00;16.77;;;5.60;;
20073;SDS011;10197;54.282;10.078;2023-04-20T09:16:30;13.85;;;5.70;;
20073;SDS011;10197;54.282;10.078;2023-04-20T09:18:57;11.73;;;5.38;;
20073;SDS011;10197;54.282;10.078;2023-04-20T09:21:25;13.85;;;5.53;;
20073;SDS011;10197;54.282;10.078;2023-04-20T09:23:57;10.88;;;4.90;;
20073;SDS011;10197;54.282;10.078;2023-04-20T09:26:24;12.98;;;5.93;;
20073;SDS011;10197;54.282;10.078;2023-04-20T09:28:51;12.32;;;5.10;;
20073;SDS011;10197;54.282;10.078;2023-04-20T09:31:20;10.77;;;5.10;;
20073;SDS011;10197;54.282;10.078;2023-04-20T09:34:02;13.02;;;6.00;;
20073;SDS011;10197;54.282;10.078;2023-04-20T09:37:01;17.27;;;5.95;;
20073;SDS011;10197;54.282;10.078;2023-04-20T09:39:28;14.85;;;5.82;;
20073;SDS011;10197;54.282;10.078;2023-04-20T09:41:58;14.85;;;6.85;;
20073;SDS011;10197;54.282;10.078;2023-04-20T09:44:30;15.20;;;5.88;;
20073;SDS011;10197;54.282;10.078;2023-04-20T09:46:59;10.20;;;5.00;;
20073;SDS011;10197;54.282;10.078;2023-04-20T09:49:26;11.35;;;5.38;;
20073;SDS011;10197;54.282;10.078;2023-04-20T09:51:56;13.48;;;5.82;;
20073;SDS011;10197;54.282;10.078;2023-04-20T09:54:23;16.00;;;6.38;;
20073;SDS011;10197;54.282;10.078;2023-04-20T09:56:51;12.10;;;6.07;;
20073;SDS011;10197;54.282;10.078;2023-04-20T09:59:19;13.00;;;5.90;;
20073;SDS011;10197;54.282;10.078;2023-04-20T10:01:47;9.95;;;5.18;;
20073;SDS011;10197;54.282;10.078;2023-04-20T10:04:15;11.75;;;5.63;;
20073;SDS011;10197;54.282;10.078;2023-04-20T10:06:50;16.77;;;5.93;;
20073;SDS011;10197;54.282;10.078;2023-04-20T10:09:20;11.60;;;5.20;;
20073;SDS011;10197;54.282;10.078;2023-04-20T10:11:49;13.35;;;5.90;;
20073;SDS011;10197;54.282;10.078;2023-04-20T10:14:16;12.85;;;5.82;;
20073;SDS011;10197;54.282;10.078;2023-04-20T10:16:44;15.20;;;6.53;;
20073;SDS011;10197;54.282;10.078;2023-04-20T10:19:12;13.45;;;6.72;;
20073;SDS011;10197;54.282;10.078;2023-04-20T10:21:47;10.57;;;5.45;;
20073;SDS011;10197;54.282;10.078;2023-04-20T10:24:15;13.13;;;5.57;;
20073;SDS011;10197;54.282;10.078;2023-04-20T10:26:54;14.30;;;5.60;;
20073;SDS011;10197;54.282;10.078;2023-04-20T10:29:22;16.17;;;7.63;;
20073;SDS011;10197;54.282;10.078;2023-04-20T10:31:49;8.45;;;5.20;;
20073;SDS011;10197;54.282;10.078;2023-04-20T10:34:27;11.30;;;6.07;;
20073;SDS011;10197;54.282;10.078;2023-04-20T10:37:05;14.30;;;6.28;;
20073;SDS011;10197;54.282;10.078;2023-04-20T10:39:33;17.08;;;6.72;;
20073;SDS011;10197;54.282;10.078;2023-04-20T10:42:02;15.70;;;6.43;;
20073;SDS011;10197;54.282;10.078;2023-04-20T10:44:29;13.25;;;7.15;;
20073;SDS011;10197;54.282;10.078;2023-04-20T10:46:58;14.13;;;7.00;;
20073;SDS011;10197;54.282;10.078;2023-04-20T10:49:25;18.02;;;6.82;;
20073;SDS011;10197;54.282;10.078;2023-04-20T10:51:53;12.32;;;5.28;;
20073;SDS011;10197;54.282;10.078;2023-04-20T10:54:21;14.35;;;6.28;;
20073;SDS011;10197;54.282;10.078;2023-04-20T10:56:49;14.55;;;5.88;;
20073;SDS011;10197;54.282;10.078;2023-04-20T10:59:17;14.07;;;6.75;;
20073;SDS011;10197;54.282;10.078;2023-04-20T11:01:46;11.27;;;6.32;;
20073;SDS011;10197;54.282;10.078;2023-04-20T11:04:13;14.35;;;6.07;;
20073;SDS011;10197;54.282;10.078;2023-04-20T11:06:41;14.05;;;6.30;;
20073;SDS011;10197;54.282;10.078;2023-04-20T11:09:16;13.10;;;6.15;;
20073;SDS011;10197;54.282;10.078;2023-04-20T11:11:56;12.82;;;6.38;;
20073;SDS011;10197;54.282;10.078;2023-04-20T11:14:24;20.08;;;6.30;;
20073;SDS011;10197;54.282;10.078;2023-04-20T11:16:51;13.25;;;6.90;;
20073;SDS011;10197;54.282;10.078;2023-04-20T11:19:22;12.38;;;6.40;;
20073;SDS011;10197;54.282;10.078;2023-04-20T11:21:50;14.15;;;6.70;;
20073;SDS011;10197;54.282;10.078;2023-04-20T11:24:17;16.42;;;6.75;;
20073;SDS011;10197;54.282;10.078;2023-04-20T11:26:46;12.93;;;5.85;;
20073;SDS011;10197;54.282;10.078;2023-04-20T11:29:25;15.15;;;6.43;;
20073;SDS011;10197;54.282;10.078;2023-04-20T11:31:53;12.20;;;6.72;;
20073;SDS011;10197;54.282;10.078;2023-04-20T11:34:20;13.15;;;6.32;;
20073;SDS011;10197;54.282;10.078;2023-04-20T11:36:47;11.70;;;6.70;;
20073;SDS011;10197;54.282;10.078;2023-04-20T11:39:21;15.20;;;5.82;;
20073;SDS011;10197;54.282;10.078;2023-04-20T11:41:49;16.50;;;7.43;;
20073;SDS011;10197;54.282;10.078;2023-04-20T11:44:18;17.67;;;6.65;;
20073;SDS011;10197;54.282;10.078;2023-04-20T11:46:46;16.48;;;7.43;;
20073;SDS011;10197;54.282;10.078;2023-04-20T11:49:15;13.55;;;7.47;;
20073;SDS011;10197;54.282;10.078;2023-04-20T11:54:47;15.90;;;6.93;;
20073;SDS011;10197;54.282;10.078;2023-04-20T11:57:16;14.93;;;7.57;;
20073;SDS011;10197;54.282;10.078;2023-04-20T11:59:42;14.55;;;6.90;;
20073;SDS011;10197;54.282;10.078;2023-04-20T12:02:12;14.30;;;7.82;;
20073;SDS011;10197;54.282;10.078;2023-04-20T12:04:39;15.93;;;7.25;;
20073;SDS011;10197;54.282;10.078;2023-04-20T12:07:06;13.00;;;7.30;;
20073;SDS011;10197;54.282;10.078;2023-04-20T12:09:33;13.07;;;7.15;;
20073;SDS011;10197;54.282;10.078;2023-04-20T12:12:02;11.43;;;6.00;;
20073;SDS011;10197;54.282;10.078;2023-04-20T12:14:31;15.30;;;7.03;;
20073;SDS011;10197;54.282;10.078;2023-04-20T12:16:58;13.05;;;7.03;;
20073;SDS011;10197;54.282;10.078;2023-04-20T12:19:25;15.80;;;6.25;;
20073;SDS011;10197;54.282;10.078;2023-04-20T12:21:52;14.93;;;6.32;;
20073;SDS011;10197;54.282;10.078;2023-04-20T12:24:19;12.68;;;6.55;;
20073;SDS011;10197;54.282;10.078;2023-04-20T12:26:46;14.18;;;6.57;;
20073;SDS011;10197;54.282;10.078;2023-04-20T12:29:13;13.10;;;6.60;;
20073;SDS011;10197;54.282;10.078;2023-04-20T12:31:42;12.30;;;6.57;;
20073;SDS011;10197;54.282;10.078;2023-04-20T12:34:09;13.05;;;7.15;;
20073;SDS011;10197;54.282;10.078;2023-04-20T12:36:36;13.68;;;7.20;;
20073;SDS011;10197;54.282;10.078;2023-04-20T12:39:03;13.60;;;7.32;;
20073;SDS011;10197;54.282;10.078;2023-04-20T12:41:31;14.05;;;6.45;;
20073;SDS011;10197;54.282;10.078;2023-04-20T12:44:00;10.25;;;5.90;;
20073;SDS011;10197;54.282;10.078;2023-04-20T12:46:27;13.23;;;6.68;;
20073;SDS011;10197;54.282;10.078;2023-04-20T12:48:56;11.20;;;6.10;;
20073;SDS011;10197;54.282;10.078;2023-04-20T12:51:22;14.32;;;6.15;;
20073;SDS011;10197;54.282;10.078;2023-04-20T12:53:49;15.50;;;5.88;;
20073;SDS011;10197;54.282;10.078;2023-04-20T12:56:16;11.80;;;6.15;;
20073;SDS011;10197;54.282;10.078;2023-04-20T12:58:43;12.15;;;6.53;;
20073;SDS011;10197;54.282;10.078;2023-04-20T13:01:10;12.10;;;6.30;;
20073;SDS011;10197;54.282;10.078;2023-04-20T13:03:37;12.65;;;6.35;;
20073;SDS011;10197;54.282;10.078;2023-04-20T13:06:06;16.73;;;7.20;;
20073;SDS011;10197;54.282;10.078;2023-04-20T13:08:33;13.90;;;6.60;;
20073;SDS011;10197;54.282;10.078;2023-04-20T13:11:01;15.00;;;6.50;;
20073;SDS011;10197;54.282;10.078;2023-04-20T13:13:29;11.68;;;6.07;;
20073;SDS011;10197;54.282;10.078;2023-04-20T13:15:56;15.07;;;6.50;;
20073;SDS011;10197;54.282;10.078;2023-04-20T13:18:23;13.60;;;7.00;;
20073;SDS011;10197;54.282;10.078;2023-04-20T13:20:50;16.38;;;5.80;;
20073;SDS011;10197;54.282;10.078;2023-04-20T13:23:19;11.88;;;6.45;;
20073;SDS011;10197;54.282;10.078;2023-04-20T13:25:46;12.00;;;6.63;;
20073;SDS011;10197;54.282;10.078;2023-04-20T13:28:13;11.98;;;6.53;;
20073;SDS011;10197;54.282;10.078;2023-04-20T13:30:40;12.90;;;6.68;;
20073;SDS011;10197;54.282;10.078;2023-04-20T13:33:09;11.82;;;6.72;;
20073;SDS011;10197;54.282;10.078;2023-04-20T13:35:36;11.60;;;6.25;;
20073;SDS011;10197;54.282;10.078;2023-04-20T13:38:04;15.05;;;6.10;;
20073;SDS011;10197;54.282;10.078;2023-04-20T13:40:32;9.32;;;6.10;;
20073;SDS011;10197;54.282;10.078;2023-04-20T13:43:03;12.02;;;6.68;;
20073;SDS011;10197;54.282;10.078;2023-04-20T13:45:33;14.77;;;9.07;;
20073;SDS011;10197;54.282;10.078;2023-04-20T13:48:00;10.63;;;7.00;;
20073;SDS011;10197;54.282;10.078;2023-04-20T13:50:27;11.85;;;7.32;;
20073;SDS011;10197;54.282;10.078;2023-04-20T13:52:54;13.10;;;7.40;;
20073;SDS011;10197;54.282;10.078;2023-04-20T13:55:20;11.98;;;6.75;;
20073;SDS011;10197;54.282;10.078;2023-04-20T13:57:49;8.88;;;6.15;;
20073;SDS011;10197;54.282;10.078;2023-04-20T14:00:16;10.85;;;6.78;;
20073;SDS011;10197;54.282;10.078;2023-04-20T14:02:43;10.75;;;6.32;;
20073;SDS011;10197;54.282;10.078;2023-04-20T14:05:11;12.98;;;7.30;;
20073;SDS011;10197;54.282;10.078;2023-04-20T14:07:38;11.80;;;7.20;;
20073;SDS011;10197;54.282;10.078;2023-04-20T14:10:08;8.70;;;6.05;;
20073;SDS011;10197;54.282;10.078;2023-04-20T14:12:35;11.70;;;7.03;;
20073;SDS011;10197;54.282;10.078;2023-04-20T14:15:04;12.70;;;7.28;;
20073;SDS011;10197;54.282;10.078;2023-04-20T14:17:32;14.13;;;7.22;;
20073;SDS011;10197;54.282;10.078;2023-04-20T14:20:00;11.13;;;6.13;;
20073;SDS011;10197;54.282;10.078;2023-04-20T14:22:28;14.50;;;7.95;;
20073;SDS011;10197;54.282;10.078;2023-04-20T14:25:00;12.88;;;7.43;;
20073;SDS011;10197;54.282;10.078;2023-04-20T14:27:27;12.13;;;8.20;;
20073;SDS011;10197;54.282;10.078;2023-04-20T14:29:54;12.15;;;7.65;;
20073;SDS011;10197;54.282;10.078;2023-04-20T14:32:22;11.82;;;7.32;;
20073;SDS011;10197;54.282;10.078;2023-04-20T14:34:49;15.80;;;7.97;;
20073;SDS011;10197;54.282;10.078;2023-04-20T14:37:16;13.05;;;8.10;;
20073;SDS011;10197;54.282;10.078;2023-04-20T14:39:43;12.55;;;7.95;;
20073;SDS011;10197;54.282;10.078;2023-04-20T14:42:10;13.65;;;8.50;;
20073;SDS011;10197;54.282;10.078;2023-04-20T14:44:37;12.35;;;7.55;;
20073;SDS011;10197;54.282;10.078;2023-04-20T14:47:04;14.73;;;7.80;;
20073;SDS011;10197;54.282;10.078;2023-04-20T14:49:36;12.93;;;8.23;;